createdAt,value
2023-04-15T00:02:14.558Z,10.30
2023-04-15T00:05:00.035Z,13.55
2023-04-15T00:07:47.405Z,11.73
2023-04-15T00:10:33.583Z,15.82
2023-04-15T00:13:19.480Z,13.18
2023-04-15T00:16:06.339Z,9.95
2023-04-15T00:18:51.746Z,14.52
2023-04-15T00:21:37.148Z,11.52
2023-04-15T00:24:23.364Z,12.18
2023-04-15T00:27:08.625Z,13.85
2023-04-15T00:29:54.071Z,11.88
2023-04-15T00:32:39.736Z,16.13
2023-04-15T00:35:25.812Z,11.40
2023-04-15T00:38:11.708Z,12.27
2023-04-15T00:40:57.713Z,13.93
2023-04-15T00:43:43.425Z,12.85
2023-04-15T00:46:31.353Z,12.45
2023-04-15T00:49:18.526Z,13.55
2023-04-15T00:52:04.278Z,16.80
2023-04-15T00:54:51.185Z,13.02
2023-04-15T00:57:37.192Z,16.27
2023-04-15T01:00:24.355Z,13.70
2023-04-15T01:03:10.303Z,14.13
2023-04-15T01:05:58.314Z,14.65
2023-04-15T01:08:44.242Z,14.50
2023-04-15T01:11:32.208Z,14.80
2023-04-15T01:14:17.588Z,11.32
2023-04-15T01:17:03.311Z,11.52
2023-04-15T01:19:49.361Z,11.68
2023-04-15T01:22:34.777Z,11.02
2023-04-15T01:25:28.158Z,10.70
2023-04-15T01:28:13.639Z,11.20
2023-04-15T01:31:12.659Z,15.63
2023-04-15T01:33:58.774Z,13.90
2023-04-15T01:36:44.092Z,14.27
2023-04-15T01:39:32.408Z,10.57
2023-04-15T01:42:17.704Z,13.68
2023-04-15T01:45:03.167Z,14.75
2023-04-15T01:47:49.286Z,17.70
2023-04-15T01:50:36.812Z,11.95
2023-04-15T01:53:22.333Z,12.98
2023-04-15T01:56:08.157Z,16.77
2023-04-15T01:58:53.976Z,11.95
2023-04-15T02:01:40.965Z,12.05
2023-04-15T02:04:26.736Z,11.65
2023-04-15T02:07:14.893Z,12.27
2023-04-15T02:10:00.404Z,12.63
2023-04-15T02:12:45.967Z,15.38
2023-04-15T02:15:34.381Z,13.80
2023-04-15T02:18:23.839Z,17.10
2023-04-15T02:21:09.520Z,11.75
2023-04-15T02:24:00.100Z,15.88
2023-04-15T02:26:46.617Z,15.57
2023-04-15T02:29:32.878Z,13.77
2023-04-15T02:32:20.290Z,13.13
2023-04-15T02:35:07.737Z,17.58
2023-04-15T02:37:53.704Z,10.93
2023-04-15T02:40:39.016Z,11.35
2023-04-15T02:43:27.538Z,12.93
2023-04-15T02:46:14.802Z,10.90
2023-04-15T02:49:00.695Z,10.05
2023-04-15T02:51:49.679Z,9.35
2023-04-15T02:54:35.509Z,13.38
2023-04-15T02:57:20.886Z,10.48
2023-04-15T03:00:09.585Z,15.68
2023-04-15T03:03:03.420Z,11.85
2023-04-15T03:05:49.329Z,13.13
2023-04-15T03:08:35.410Z,11.68
2023-04-15T03:11:21.518Z,11.43
2023-04-15T03:14:07.133Z,13.43
2023-04-15T03:16:56.044Z,8.70
2023-04-15T03:19:42.777Z,16.48
2023-04-15T03:22:28.064Z,11.93
2023-04-15T03:25:13.498Z,12.02
2023-04-15T03:28:00.425Z,14.32
2023-04-15T03:30:45.901Z,17.58
2023-04-15T03:33:31.416Z,11.50
2023-04-15T03:36:17.067Z,14.98
2023-04-15T03:39:03.476Z,18.65
2023-04-15T03:41:52.073Z,16.67
2023-04-15T03:44:40.262Z,12.55
2023-04-15T03:47:25.749Z,13.27
2023-04-15T03:50:11.628Z,16.30
2023-04-15T03:53:03.230Z,19.08
2023-04-15T03:55:48.844Z,14.00
2023-04-15T03:58:34.551Z,17.08
2023-04-15T04:01:20.077Z,12.45
2023-04-15T04:04:05.940Z,13.70
2023-04-15T04:06:51.052Z,13.45
2023-04-15T04:09:38.833Z,14.85
2023-04-15T04:12:24.077Z,17.52
2023-04-15T04:15:09.877Z,15.45
2023-04-15T04:17:56.206Z,14.13
2023-04-15T04:20:42.729Z,17.63
2023-04-15T04:23:30.854Z,13.13
2023-04-15T04:26:16.398Z,15.65
2023-04-15T04:29:01.991Z,14.48
2023-04-15T04:31:48.884Z,14.10
2023-04-15T04:34:34.207Z,16.23
2023-04-15T04:37:19.705Z,13.18
2023-04-15T04:40:09.081Z,14.00
2023-04-15T04:42:54.436Z,19.20
2023-04-15T04:45:39.944Z,15.68
2023-04-15T04:48:25.990Z,14.35
2023-04-15T04:51:11.882Z,14.77
2023-04-15T04:53:57.434Z,28.25
2023-04-15T04:56:42.847Z,16.70
2023-04-15T04:59:28.363Z,16.80
2023-04-15T05:02:14.019Z,12.02
2023-04-15T05:04:59.481Z,15.30
2023-04-15T05:07:44.987Z,14.27
2023-04-15T05:10:30.835Z,19.48
2023-04-15T05:13:16.582Z,15.90
2023-04-15T05:16:02.296Z,16.48
2023-04-15T05:18:47.547Z,18.67
2023-04-15T05:21:33.338Z,14.73
2023-04-15T05:24:18.656Z,16.23
2023-04-15T05:27:03.985Z,22.83
2023-04-15T05:29:56.644Z,19.98
2023-04-15T05:32:42.384Z,18.30
2023-04-15T05:35:27.809Z,15.27
2023-04-15T05:38:13.252Z,14.25
2023-04-15T05:40:58.663Z,18.33
2023-04-15T05:43:44.270Z,19.20
2023-04-15T05:46:29.705Z,14.85
2023-04-15T05:49:15.583Z,14.50
2023-04-15T05:52:00.825Z,14.18
2023-04-15T05:54:46.628Z,17.63
2023-04-15T05:57:31.921Z,13.63
2023-04-15T06:00:17.411Z,13.40
2023-04-15T06:03:03.252Z,15.52
2023-04-15T06:05:49.270Z,17.02
2023-04-15T06:08:34.728Z,14.85
2023-04-15T06:11:23.472Z,14.45
2023-04-15T06:14:08.815Z,16.98
2023-04-15T06:16:54.551Z,13.70
2023-04-15T06:19:40.152Z,14.57
2023-04-15T06:22:25.547Z,16.75
2023-04-15T06:25:14.083Z,14.07
2023-04-15T06:27:59.587Z,18.35
2023-04-15T06:30:45.530Z,17.33
2023-04-15T06:33:32.018Z,14.20
2023-04-15T06:36:17.608Z,17.42
2023-04-15T06:39:02.898Z,17.02
2023-04-15T06:41:48.959Z,15.95
2023-04-15T06:44:34.352Z,18.25
2023-04-15T06:47:20.030Z,12.45
2023-04-15T06:50:06.736Z,15.73
2023-04-15T06:52:52.417Z,14.45
2023-04-15T06:55:38.978Z,12.63
2023-04-15T06:58:24.290Z,16.05
2023-04-15T07:01:10.000Z,15.02
2023-04-15T07:03:55.634Z,14.70
2023-04-15T07:06:41.826Z,12.90
2023-04-15T07:09:28.985Z,14.50
2023-04-15T07:12:17.266Z,13.90
2023-04-15T07:15:04.536Z,13.60
2023-04-15T07:17:50.416Z,18.38
2023-04-15T07:20:36.068Z,16.10
2023-04-15T07:23:21.785Z,13.80
2023-04-15T07:26:09.012Z,14.07
2023-04-15T07:28:54.216Z,13.50
2023-04-15T07:31:42.303Z,13.43
2023-04-15T07:34:29.616Z,13.20
2023-04-15T07:37:16.303Z,12.45
2023-04-15T07:40:01.957Z,12.63
2023-04-15T07:42:50.423Z,12.43
2023-04-15T07:45:36.026Z,11.38
2023-04-15T07:48:21.447Z,24.17
2023-04-15T07:51:09.263Z,18.83
2023-04-15T07:53:55.107Z,13.27
2023-04-15T07:56:41.513Z,13.30
2023-04-15T07:59:30.002Z,14.88
2023-04-15T08:02:15.557Z,10.80
2023-04-15T08:05:05.758Z,12.35
2023-04-15T08:07:51.607Z,11.70
2023-04-15T08:10:37.833Z,13.02
2023-04-15T08:13:23.248Z,9.57
2023-04-15T08:16:25.406Z,10.38
2023-04-15T08:19:13.320Z,12.75
2023-04-15T08:21:59.653Z,11.10
2023-04-15T08:24:45.116Z,10.90
2023-04-15T08:27:30.353Z,12.98
2023-04-15T08:30:16.029Z,10.77
2023-04-15T08:33:01.685Z,12.32
2023-04-15T08:35:47.288Z,9.75
2023-04-15T08:38:36.387Z,10.15
2023-04-15T08:41:24.168Z,9.68
2023-04-15T08:44:10.480Z,12.65
2023-04-15T08:46:58.548Z,9.18
2023-04-15T08:49:44.439Z,12.25
2023-04-15T08:52:32.257Z,10.65
2023-04-15T08:55:17.974Z,10.48
2023-04-15T08:58:04.733Z,8.70
2023-04-15T09:00:50.585Z,11.68
2023-04-15T09:03:37.644Z,10.90
2023-04-15T09:06:23.677Z,13.48
2023-04-15T09:09:09.027Z,15.65
2023-04-15T09:11:54.745Z,10.40
2023-04-15T09:14:41.038Z,9.75
2023-04-15T09:17:27.973Z,9.20
2023-04-15T09:20:15.361Z,14.38
2023-04-15T09:23:00.790Z,9.82
2023-04-15T09:25:46.619Z,12.07
2023-04-15T09:28:32.961Z,10.70
2023-04-15T09:31:30.426Z,8.88
2023-04-15T09:34:15.851Z,9.73
2023-04-15T09:37:01.504Z,8.20
2023-04-15T09:39:52.116Z,6.68
2023-04-15T09:42:38.235Z,8.48
2023-04-15T09:45:25.690Z,9.98
2023-04-15T09:48:18.778Z,8.27
2023-04-15T09:51:04.390Z,10.45
2023-04-15T09:53:54.797Z,11.43
2023-04-15T09:56:43.214Z,8.32
2023-04-15T09:59:30.446Z,8.13
2023-04-15T10:02:22.858Z,6.65
2023-04-15T10:05:13.763Z,8.05
2023-04-15T10:07:59.604Z,7.50
2023-04-15T10:10:47.126Z,7.82
2023-04-15T10:13:37.553Z,6.47
2023-04-15T10:16:28.670Z,6.53
2023-04-15T10:19:16.487Z,10.55
2023-04-15T10:22:02.786Z,7.07
2023-04-15T10:24:49.919Z,5.78
2023-04-15T10:27:40.289Z,7.70
2023-04-15T10:30:26.542Z,7.88
2023-04-15T10:33:12.794Z,4.05
2023-04-15T10:35:58.817Z,3.75
2023-04-15T10:38:45.817Z,4.00
2023-04-15T10:41:31.484Z,5.32
2023-04-15T10:44:16.953Z,3.75
2023-04-15T10:47:10.819Z,9.70
2023-04-15T10:50:02.407Z,7.13
2023-04-15T10:52:51.706Z,5.00
2023-04-15T10:55:37.479Z,3.00
2023-04-15T10:58:26.427Z,3.00
2023-04-15T11:01:13.540Z,3.83
2023-04-15T11:03:59.096Z,3.17
2023-04-15T11:06:45.797Z,5.45
2023-04-15T11:09:33.289Z,6.07
2023-04-15T11:12:19.391Z,4.97
2023-04-15T11:15:33.555Z,5.22
2023-04-15T11:18:30.711Z,7.85
2023-04-15T11:21:16.424Z,4.13
2023-04-15T11:24:05.233Z,7.65
2023-04-15T11:26:50.915Z,7.57
2023-04-15T11:29:37.115Z,5.50
2023-04-15T11:32:22.730Z,9.30
2023-04-15T11:35:07.994Z,5.45
2023-04-15T11:37:53.428Z,7.78
2023-04-15T11:40:39.591Z,11.70
2023-04-15T11:43:29.493Z,4.82
2023-04-15T11:46:15.610Z,7.55
2023-04-15T11:49:01.120Z,5.50
2023-04-15T11:51:46.411Z,6.00
2023-04-15T11:54:32.436Z,5.97
2023-04-15T11:57:18.106Z,6.65
2023-04-15T12:00:05.203Z,4.82
2023-04-15T12:03:19.189Z,4.47
2023-04-15T12:06:11.716Z,5.85
2023-04-15T12:09:13.267Z,4.47
2023-04-15T12:11:59.174Z,4.00
2023-04-15T12:14:44.788Z,7.45
2023-04-15T12:17:30.106Z,6.60
2023-04-15T12:20:44.577Z,6.32
2023-04-15T12:23:29.825Z,5.40
2023-04-15T12:26:15.512Z,3.70
2023-04-15T12:29:02.996Z,2.65
2023-04-15T12:31:51.388Z,5.93
2023-04-15T12:34:40.934Z,3.35
2023-04-15T12:37:26.431Z,3.53
2023-04-15T12:40:12.212Z,2.97
2023-04-15T12:42:58.050Z,3.20
2023-04-15T12:45:46.772Z,5.32
2023-04-15T12:48:33.220Z,4.13
2023-04-15T12:51:18.926Z,2.65
2023-04-15T12:54:04.731Z,1.98
2023-04-15T12:56:54.811Z,3.08
2023-04-15T12:59:40.492Z,3.15
2023-04-15T13:02:28.768Z,5.00
2023-04-15T13:05:15.660Z,5.25
2023-04-15T13:08:01.136Z,1.85
2023-04-15T13:10:49.246Z,3.85
2023-04-15T13:13:34.643Z,7.00
2023-04-15T13:16:20.829Z,4.20
2023-04-15T13:19:06.478Z,3.95
2023-04-15T13:21:51.906Z,3.10
2023-04-15T13:24:37.408Z,4.82
2023-04-15T13:27:23.244Z,2.67
2023-04-15T13:30:09.231Z,2.88
2023-04-15T13:32:54.975Z,4.22
2023-04-15T13:35:41.057Z,4.75
2023-04-15T13:38:31.878Z,4.43
2023-04-15T13:41:17.399Z,2.97
2023-04-15T13:44:03.437Z,4.45
2023-04-15T13:46:49.029Z,3.65
2023-04-15T13:49:34.584Z,3.92
2023-04-15T13:52:20.098Z,6.95
2023-04-15T13:55:10.271Z,4.15
2023-04-15T13:58:05.545Z,6.28
2023-04-15T14:00:51.223Z,4.78
2023-04-15T14:03:37.168Z,2.33
2023-04-15T14:06:23.027Z,5.30
2023-04-15T14:09:11.094Z,2.70
2023-04-15T14:12:04.204Z,4.70
2023-04-15T14:14:49.621Z,7.47
2023-04-15T14:17:35.305Z,4.28
2023-04-15T14:20:20.730Z,5.38
2023-04-15T14:23:06.587Z,2.08
2023-04-15T14:25:54.505Z,3.10
2023-04-15T14:28:40.151Z,6.57
2023-04-15T14:31:27.890Z,4.50
2023-04-15T14:34:16.896Z,2.72
2023-04-15T14:37:03.381Z,3.88
2023-04-15T14:39:48.704Z,4.38
2023-04-15T14:42:34.108Z,2.67
2023-04-15T14:45:19.531Z,2.85
2023-04-15T14:48:06.654Z,2.92
2023-04-15T14:50:55.759Z,2.42
2023-04-15T14:53:41.357Z,4.70
2023-04-15T14:56:27.288Z,4.05
2023-04-15T14:59:12.941Z,6.43
2023-04-15T15:01:58.711Z,3.17
2023-04-15T15:04:43.950Z,4.80
2023-04-15T15:07:29.654Z,2.97
2023-04-15T15:10:33.199Z,3.17
2023-04-15T15:13:21.093Z,5.93
2023-04-15T15:16:07.151Z,3.85
2023-04-15T15:18:52.469Z,3.53
2023-04-15T15:21:38.011Z,2.00
2023-04-15T15:24:24.855Z,4.15
2023-04-15T15:27:13.224Z,4.05
2023-04-15T15:29:59.011Z,4.55
2023-04-15T15:32:44.907Z,6.60
2023-04-15T15:35:30.164Z,6.63
2023-04-15T15:38:16.268Z,3.78
2023-04-15T15:41:02.000Z,7.15
2023-04-15T15:43:50.074Z,5.00
2023-04-15T15:46:38.673Z,5.75
2023-04-15T15:49:25.837Z,4.43
2023-04-15T15:52:11.913Z,3.70
2023-04-15T15:54:57.463Z,5.57
2023-04-15T15:57:42.781Z,5.40
2023-04-15T16:00:28.572Z,8.52
2023-04-15T16:03:14.899Z,8.68
2023-04-15T16:06:00.909Z,6.00
2023-04-15T16:08:46.528Z,5.18
2023-04-15T16:11:34.916Z,7.53
2023-04-15T16:14:21.523Z,5.85
2023-04-15T16:17:06.983Z,7.20
2023-04-15T16:19:57.896Z,5.28
2023-04-15T16:22:46.462Z,8.75
2023-04-15T16:25:31.965Z,4.80
2023-04-15T16:28:26.241Z,2.88
2023-04-15T16:31:12.397Z,10.18
2023-04-15T16:34:01.050Z,7.32
2023-04-15T16:36:46.817Z,5.30
2023-04-15T16:39:32.117Z,7.60
2023-04-15T16:42:17.825Z,7.30
2023-04-15T16:45:03.044Z,10.60
2023-04-15T16:47:49.693Z,10.00
2023-04-15T16:50:38.543Z,9.65
2023-04-15T16:53:27.111Z,4.85
2023-04-15T16:56:12.393Z,9.18
2023-04-15T16:58:57.867Z,10.52
2023-04-15T17:01:43.580Z,9.10
2023-04-15T17:04:29.082Z,8.30
2023-04-15T17:07:14.464Z,8.40
2023-04-15T17:10:00.146Z,9.00
2023-04-15T17:12:45.866Z,10.77
2023-04-15T17:15:32.366Z,9.10
2023-04-15T17:18:20.339Z,11.02
2023-04-15T17:21:06.004Z,10.93
2023-04-15T17:23:52.011Z,9.48
2023-04-15T17:26:37.654Z,9.68
2023-04-15T17:29:23.350Z,9.18
2023-04-15T17:32:10.973Z,9.05
2023-04-15T17:34:56.424Z,4.68
2023-04-15T17:37:44.272Z,8.25
2023-04-15T17:40:29.523Z,12.90
2023-04-15T17:43:15.155Z,8.27
2023-04-15T17:46:00.843Z,10.02
2023-04-15T17:48:47.541Z,13.40
2023-04-15T17:51:33.069Z,16.40
2023-04-15T17:54:25.288Z,11.68
2023-04-15T17:57:10.871Z,10.48
2023-04-15T17:59:56.521Z,14.30
2023-04-15T18:02:45.380Z,15.63
2023-04-15T18:05:30.725Z,14.52
2023-04-15T18:08:16.506Z,10.98
2023-04-15T18:11:01.608Z,16.90
2023-04-15T18:13:47.258Z,12.25
2023-04-15T18:16:33.030Z,8.05
2023-04-15T18:19:18.673Z,13.35
2023-04-15T18:22:04.369Z,9.23
2023-04-15T18:24:52.486Z,8.65
2023-04-15T18:27:40.482Z,9.43
2023-04-15T18:30:25.841Z,11.20
2023-04-15T18:33:11.656Z,12.48
2023-04-15T18:35:57.455Z,10.98
2023-04-15T18:38:44.716Z,15.63
2023-04-15T18:41:30.307Z,10.10
2023-04-15T18:44:21.386Z,13.52
2023-04-15T18:47:06.959Z,20.30
2023-04-15T18:49:52.473Z,9.32
2023-04-15T18:52:38.010Z,18.02
2023-04-15T18:55:23.715Z,6.97
2023-04-15T18:58:09.362Z,11.65
2023-04-15T19:00:54.798Z,13.60
2023-04-15T19:03:40.105Z,14.52
2023-04-15T19:06:27.377Z,6.65
2023-04-15T19:09:13.315Z,16.02
2023-04-15T19:11:58.607Z,10.65
2023-04-15T19:14:44.325Z,12.75
2023-04-15T19:17:29.655Z,9.25
2023-04-15T19:20:17.938Z,9.25
2023-04-15T19:23:03.434Z,6.88
2023-04-15T19:25:48.759Z,13.05
2023-04-15T19:28:34.673Z,16.05
2023-04-15T19:31:20.616Z,10.80
2023-04-15T19:34:06.287Z,10.10
2023-04-15T19:36:51.747Z,13.10
2023-04-15T19:39:37.128Z,12.80
2023-04-15T19:42:22.910Z,8.43
2023-04-15T19:45:08.985Z,9.52
2023-04-15T19:48:00.867Z,19.67
2023-04-15T19:50:46.252Z,17.95
2023-04-15T19:53:31.356Z,10.07
2023-04-15T19:56:17.108Z,9.43
2023-04-15T19:59:02.679Z,13.43
2023-04-15T20:01:48.516Z,17.98
2023-04-15T20:04:34.186Z,16.95
2023-04-15T20:07:19.724Z,12.80
2023-04-15T20:10:08.656Z,14.32
2023-04-15T20:12:57.665Z,10.23
2023-04-15T20:15:43.241Z,9.15
2023-04-15T20:18:28.510Z,18.23
2023-04-15T20:21:16.620Z,20.23
2023-04-15T20:24:01.972Z,15.05
2023-04-15T20:26:47.507Z,17.83
2023-04-15T20:29:32.820Z,7.05
2023-04-15T20:32:18.821Z,9.88
2023-04-15T20:35:05.860Z,13.77
2023-04-15T20:37:50.991Z,8.95
2023-04-15T20:43:24.292Z,14.00
2023-04-15T20:46:20.414Z,8.07
2023-04-15T20:49:09.677Z,12.15
2023-04-15T20:51:55.800Z,11.02
2023-04-15T20:54:41.610Z,12.43
2023-04-15T20:57:27.171Z,12.68
2023-04-15T21:00:12.923Z,4.75
2023-04-15T21:02:59.760Z,11.90
2023-04-15T21:05:46.764Z,10.98
2023-04-15T21:08:32.279Z,14.25
2023-04-15T21:11:33.154Z,12.65
2023-04-15T21:14:23.397Z,11.27
2023-04-15T21:17:11.003Z,8.05
2023-04-15T21:19:57.534Z,19.30
2023-04-15T21:22:42.845Z,12.18
2023-04-15T21:25:27.930Z,10.65
2023-04-15T21:28:16.937Z,14.95
2023-04-15T21:31:02.423Z,6.50
2023-04-15T21:33:48.019Z,11.30
2023-04-15T21:36:33.867Z,9.77
2023-04-15T21:39:19.031Z,10.35
2023-04-15T21:42:04.789Z,11.43
2023-04-15T21:44:49.941Z,9.07
2023-04-15T21:47:56.855Z,12.05
2023-04-15T21:50:43.899Z,11.63
2023-04-15T21:53:29.344Z,14.20
2023-04-15T21:56:14.783Z,11.00
2023-04-15T21:59:04.810Z,11.52
2023-04-15T22:01:50.804Z,18.23
2023-04-15T22:04:36.640Z,7.43
2023-04-15T22:07:22.640Z,8.07
2023-04-15T22:10:08.590Z,13.50
2023-04-15T22:12:54.673Z,11.27
2023-04-15T22:15:41.525Z,7.88
2023-04-15T22:18:29.169Z,13.13
2023-04-15T22:21:17.924Z,6.15
2023-04-15T22:24:38.728Z,9.52
2023-04-15T22:27:11.459Z,10.50
2023-04-15T22:29:56.951Z,8.07
2023-04-15T22:32:42.529Z,7.63
2023-04-15T22:35:28.315Z,8.43
2023-04-15T22:38:13.601Z,7.75
2023-04-15T22:40:59.484Z,12.13
2023-04-15T22:43:46.288Z,10.07
2023-04-15T22:46:34.103Z,11.80
2023-04-15T22:49:22.444Z,10.30
2023-04-15T22:52:10.427Z,12.27
2023-04-15T22:54:57.888Z,11.52
2023-04-15T22:57:43.097Z,8.40
2023-04-15T23:00:30.052Z,10.15
2023-04-15T23:03:18.092Z,13.07
2023-04-15T23:06:06.554Z,11.88
2023-04-15T23:08:52.065Z,13.20
2023-04-15T23:11:37.689Z,10.68
2023-04-15T23:14:23.311Z,11.77
2023-04-15T23:17:09.056Z,17.23
2023-04-15T23:19:54.263Z,12.93
2023-04-15T23:22:42.128Z,9.40
2023-04-15T23:25:27.437Z,8.30
2023-04-15T23:28:13.045Z,17.80
2023-04-15T23:31:00.450Z,10.25
2023-04-15T23:33:46.442Z,16.48
2023-04-15T23:36:32.279Z,22.70
2023-04-15T23:39:17.842Z,21.33
2023-04-15T23:42:03.837Z,16.67
2023-04-15T23:44:51.980Z,21.55
2023-04-15T23:47:39.024Z,27.25
2023-04-15T23:50:26.899Z,17.17
2023-04-15T23:53:12.725Z,18.77
2023-04-15T23:56:00.602Z,20.90
2023-04-15T23:58:46.084Z,17.15
